Time;durP1;ratioP1;P1;durP2;ratioP2;P2;SDS_P1;SDS_P2;PMS_P1;PMS_P2;Temp;Humidity;BMP_temperature;BMP_pressure;BME280_temperature;BME280_humidity;BME280_pressure;Samples;Min_cycle;Max_cycle;Signal;HPM_P1;HPM_P2
2024/04/01 00:00:31;;;;;;;10.63;8.55;;;;;;;8.92;100.00;99225.91;4965170;28;20056;-88
2024/04/01 00:02:57;;;;;;;9.40;7.55;;;;;;;8.92;100.00;99220.59;4988381;28;20600;-88
2024/04/01 00:05:23;;;;;;;13.00;8.32;;;;;;;8.99;100.00;99229.25;4955783;28;20030;-87
2024/04/01 00:07:51;;;;;;;9.75;7.22;;;;;;;8.95;100.00;99223.63;4967038;28;20342;-88
2024/04/01 00:10:20;;;;;;;9.45;7.57;;;;;;;8.82;100.00;99215.84;4965386;28;20044;-87
2024/04/01 00:12:46;;;;;;;9.13;7.45;;;;;;;9.00;100.00;99231.69;4975429;28;20080;-87
2024/04/01 00:15:11;;;;;;;10.05;7.78;;;;;;;8.96;100.00;99222.56;4964946;28;20037;-89
2024/04/01 00:17:37;;;;;;;10.23;7.70;;;;;;;8.69;100.00;99205.47;4965073;28;20037;-88
2024/04/01 00:20:03;;;;;;;11.10;7.78;;;;;;;8.93;100.00;99238.94;4958010;28;20116;-88
2024/04/01 00:22:28;;;;;;;12.85;7.57;;;;;;;8.78;100.00;99226.13;4959813;28;20034;-87
2024/04/01 00:24:54;;;;;;;9.27;7.15;;;;;;;8.81;100.00;99238.13;4960460;28;20033;-88
2024/04/01 00:27:20;;;;;;;8.50;6.80;;;;;;;8.61;100.00;99216.41;4987429;28;20029;-88
2024/04/01 00:29:45;;;;;;;9.82;7.30;;;;;;;8.70;100.00;99220.34;4973694;28;20092;-89
2024/04/01 00:32:11;;;;;;;8.57;7.15;;;;;;;8.63;100.00;99193.91;4975278;28;20511;-88
2024/04/01 00:34:36;;;;;;;9.13;6.80;;;;;;;8.69;100.00;99208.13;4990669;28;20119;-88
2024/04/01 00:37:02;;;;;;;8.80;6.38;;;;;;;8.65;100.00;99209.59;4989668;28;21336;-88
2024/04/01 00:39:27;;;;;;;9.95;6.93;;;;;;;8.63;100.00;99224.94;4960532;28;20033;-87
2024/04/01 00:41:53;;;;;;;9.35;6.50;;;;;;;8.55;100.00;99212.00;4977090;28;20037;-90
2024/04/01 00:44:18;;;;;;;8.93;7.07;;;;;;;8.57;100.00;99226.63;4962130;28;22155;-88
2024/04/01 00:46:44;;;;;;;8.02;7.07;;;;;;;8.54;100.00;99224.44;4976359;28;20034;-87
2024/04/01 00:49:10;;;;;;;12.00;7.00;;;;;;;8.34;100.00;99194.72;4990976;28;20158;-88
2024/04/01 00:51:37;;;;;;;10.88;7.47;;;;;;;8.44;100.00;99218.88;4975975;28;20543;-87
2024/04/01 00:54:02;;;;;;;8.43;7.22;;;;;;;8.40;100.00;99221.16;4976460;28;20189;-88
2024/04/01 00:56:30;;;;;;;9.77;7.10;;;;;;;8.40;100.00;99215.06;4977848;28;20037;-87
2024/04/01 00:58:55;;;;;;;9.40;6.97;;;;;;;8.30;100.00;99190.91;4977899;28;20030;-88
2024/04/01 01:01:23;;;;;;;8.88;7.30;;;;;;;8.28;100.00;99201.75;4977415;28;20132;-87
2024/04/01 01:03:49;;;;;;;8.70;7.32;;;;;;;8.04;100.00;99165.59;4975774;28;20151;-89
2024/04/01 01:06:18;;;;;;;8.52;7.22;;;;;;;8.26;100.00;99197.72;4988589;28;20065;-88
2024/04/01 01:08:44;;;;;;;8.57;6.65;;;;;;;8.22;100.00;99189.38;4977172;28;20041;-88
2024/04/01 01:11:10;;;;;;;8.68;7.10;;;;;;;8.21;100.00;99183.28;4975160;28;20080;-88
2024/04/01 01:13:36;;;;;;;8.43;6.95;;;;;;;8.14;100.00;99165.84;4974490;28;20060;-88
2024/04/01 01:16:02;;;;;;;8.43;6.70;;;;;;;8.09;100.00;99165.72;4975521;28;20075;-87
2024/04/01 01:18:27;;;;;;;10.23;6.50;;;;;;;8.19;100.00;99180.06;4973462;28;20053;-88
2024/04/01 01:20:53;;;;;;;8.90;5.93;;;;;;;8.00;100.00;99146.69;4974307;28;20036;-88
2024/04/01 01:23:18;;;;;;;7.25;6.53;;;;;;;7.86;100.00;99127.50;4947236;28;20045;-87
2024/04/01 01:25:44;;;;;;;13.05;6.00;;;;;;;8.15;100.00;99172.75;4977335;28;20033;-88
2024/04/01 01:28:09;;;;;;;6.63;5.93;;;;;;;8.20;100.00;99167.59;4982685;28;20037;-87
2024/04/01 01:30:35;;;;;;;6.55;5.63;;;;;;;8.12;100.00;99159.97;4981854;28;20049;-89
2024/04/01 01:33:03;;;;;;;6.40;5.32;;;;;;;7.93;100.00;99138.81;4979735;28;20157;-87
2024/04/01 01:35:30;;;;;;;8.73;5.40;;;;;;;8.18;100.00;99182.94;4981081;28;20044;-87
2024/04/01 01:37:55;;;;;;;7.25;5.65;;;;;;;8.24;100.00;99195.25;4954964;28;20105;-87
2024/04/01 01:40:21;;;;;;;14.95;5.80;;;;;;;7.77;100.00;99122.75;4990249;28;20128;-87
2024/04/01 01:42:48;;;;;;;8.45;5.72;;;;;;;8.19;100.00;99187.19;4976341;28;20033;-87
2024/04/01 01:45:13;;;;;;;9.77;5.30;;;;;;;8.09;100.00;99173.69;4987771;28;20593;-87
2024/04/01 01:47:39;;;;;;;6.18;5.35;;;;;;;8.18;100.00;99180.28;4966176;28;20210;-86
2024/04/01 01:50:06;;;;;;;7.10;5.22;;;;;;;7.85;100.00;99147.09;4959919;28;20030;-87
2024/04/01 01:52:32;;;;;;;9.77;5.50;;;;;;;8.01;100.00;99164.19;4947099;28;20572;-86
2024/04/01 01:54:58;;;;;;;8.40;5.95;;;;;;;7.92;100.00;99155.75;4949406;28;20048;-88
2024/04/01 01:57:24;;;;;;;12.45;5.70;;;;;;;7.99;100.00;99179.50;4960361;28;20115;-90
2024/04/01 01:59:49;;;;;;;7.30;5.45;;;;;;;7.92;100.00;99176.94;4964743;28;20366;-89
2024/04/01 02:02:16;;;;;;;7.82;5.63;;;;;;;7.99;100.00;99191.94;4960777;28;20722;-87
2024/04/01 02:04:41;;;;;;;7.00;5.68;;;;;;;8.01;100.00;99190.69;4965545;28;20034;-87
2024/04/01 02:07:07;;;;;;;6.47;5.38;;;;;;;7.97;100.00;99188.69;4974941;28;20033;-87
2024/04/01 02:09:33;;;;;;;5.70;5.07;;;;;;;7.93;100.00;99181.22;4972491;28;20519;-89
2024/04/01 02:11:59;;;;;;;10.73;6.20;;;;;;;7.84;100.00;99179.91;4985573;28;22464;-87
2024/04/01 02:14:25;;;;;;;6.28;5.63;;;;;;;7.76;100.00;99177.56;4967227;28;20435;-86
2024/04/01 02:16:51;;;;;;;5.65;5.07;;;;;;;7.65;100.00;99165.06;4956996;28;20179;-89
2024/04/01 02:19:16;;;;;;;7.85;5.68;;;;;;;7.81;100.00;99196.22;4953291;28;20059;-87
2024/04/01 02:21:44;;;;;;;8.10;6.00;;;;;;;7.69;100.00;99186.59;4974582;28;20033;-87
2024/04/01 02:24:11;;;;;;;6.85;5.05;;;;;;;7.73;100.00;99198.34;4979425;28;20030;-87
2024/04/01 02:26:36;;;;;;;5.43;4.93;;;;;;;7.70;100.00;99206.75;4978207;28;20371;-87
2024/04/01 02:29:08;;;;;;;6.75;6.05;;;;;;;7.53;100.00;99180.06;4978580;28;20029;-87
2024/04/01 02:31:33;;;;;;;8.90;5.80;;;;;;;7.50;100.00;99180.50;4958448;28;20073;-87
2024/04/01 02:34:00;;;;;;;7.63;5.65;;;;;;;7.65;100.00;99204.78;4953974;28;20021;-87
2024/04/01 02:36:25;;;;;;;8.07;5.03;;;;;;;7.57;100.00;99192.66;4980552;28;21516;-87
2024/04/01 02:38:51;;;;;;;7.75;5.78;;;;;;;7.62;100.00;99202.56;4954912;28;21210;-87
2024/04/01 02:41:16;;;;;;;7.18;6.03;;;;;;;7.57;100.00;99186.56;4983832;28;20040;-87
2024/04/01 02:43:45;;;;;;;5.68;5.13;;;;;;;7.40;100.00;99177.56;4978937;28;20041;-87
2024/04/01 02:46:10;;;;;;;5.75;5.15;;;;;;;7.56;100.00;99200.81;4993463;28;20048;-86
2024/04/01 02:48:36;;;;;;;6.50;5.35;;;;;;;7.33;100.00;99167.88;4959090;28;20197;-88
2024/04/01 02:51:02;;;;;;;9.23;6.13;;;;;;;7.36;100.00;99182.47;4965471;28;20201;-87
2024/04/01 02:53:27;;;;;;;6.70;4.88;;;;;;;7.59;100.00;99214.41;4957090;28;20072;-87
2024/04/01 02:55:53;;;;;;;6.55;5.32;;;;;;;7.47;100.00;99202.13;4960371;28;20678;-87
2024/04/01 02:58:18;;;;;;;7.35;4.90;;;;;;;7.62;100.00;99197.28;4978637;28;20033;-87
2024/04/01 03:00:45;;;;;;;6.18;5.57;;;;;;;7.67;100.00;99210.66;4971855;28;20069;-87
2024/04/01 03:03:12;;;;;;;7.22;5.28;;;;;;;7.68;100.00;99206.19;4965147;28;20165;-87
2024/04/01 03:05:40;;;;;;;5.97;5.38;;;;;;;7.62;100.00;99202.56;4973040;28;20040;-87
2024/04/01 03:08:06;;;;;;;;;;;;;;;7.70;100.00;99217.34;4967649;28;20208;-88
2024/04/01 03:10:36;;;;;;;5.25;4.72;;;;;;;7.64;100.00;99219.88;4963840;28;19921;-87
2024/04/01 03:13:08;;;;;;;5.22;4.57;;;;;;;7.66;100.00;99224.94;4968817;28;20029;-87
2024/04/01 03:15:34;;;;;;;5.70;4.80;;;;;;;7.60;100.00;99212.56;4974338;28;20037;-87
2024/04/01 03:18:00;;;;;;;5.82;4.63;;;;;;;7.40;100.00;99180.22;4968543;28;20021;-87
2024/04/01 03:20:26;;;;;;;5.45;4.63;;;;;;;7.46;100.00;99197.84;4976702;28;20427;-88
2024/04/01 03:22:52;;;;;;;10.05;4.40;;;;;;;7.58;100.00;99222.59;4951509;28;20060;-88
2024/04/01 03:25:17;;;;;;;10.50;4.97;;;;;;;7.65;100.00;99218.84;4955944;28;20477;-88
2024/04/01 03:27:43;;;;;;;6.80;4.82;;;;;;;7.56;100.00;99204.28;4966570;28;20282;-88
2024/04/01 03:30:09;;;;;;;6.00;4.65;;;;;;;7.52;100.00;99208.38;4948086;28;20030;-87
2024/04/01 03:32:36;;;;;;;4.50;4.10;;;;;;;7.37;100.00;99176.16;4964840;28;20518;-88
2024/04/01 03:35:02;;;;;;;5.80;4.80;;;;;;;7.25;100.00;99143.53;4967054;28;20037;-87
2024/04/01 03:37:28;;;;;;;5.53;5.00;;;;;;;7.52;100.00;99202.28;4968830;28;20029;-88
2024/04/01 03:39:53;;;;;;;5.88;5.13;;;;;;;7.44;100.00;99195.44;4962605;28;20025;-87
2024/04/01 03:42:19;;;;;;;6.10;5.50;;;;;;;7.43;100.00;99193.00;4979287;28;20546;-87
2024/04/01 03:44:44;;;;;;;5.40;4.90;;;;;;;7.31;100.00;99199.03;4987648;28;20473;-87
2024/04/01 03:47:10;;;;;;;5.47;4.93;;;;;;;7.34;100.00;99216.31;4950178;28;20037;-87
2024/04/01 03:49:36;;;;;;;5.25;4.75;;;;;;;7.41;100.00;99218.88;4948761;28;20453;-88
2024/04/01 03:52:02;;;;;;;5.88;4.68;;;;;;;7.26;100.00;99198.88;4969659;28;20620;-87
2024/04/01 03:54:27;;;;;;;6.20;4.90;;;;;;;7.29;100.00;99208.19;4958866;28;20227;-88
2024/04/01 03:56:53;;;;;;;4.60;4.13;;;;;;;7.19;100.00;99190.19;4970108;28;20523;-88
2024/04/01 03:59:18;;;;;;;5.57;4.57;;;;;;;7.33;100.00;99202.25;4983653;28;20969;-86
2024/04/01 04:01:44;;;;;;;5.38;4.88;;;;;;;7.36;100.00;99208.94;4966426;28;20061;-87
2024/04/01 04:04:14;;;;;;;6.65;4.53;;;;;;;7.33;100.00;99204.91;4953036;28;20030;-88
2024/04/01 04:06:40;;;;;;;6.57;4.82;;;;;;;7.25;100.00;99188.50;4958984;28;20028;-87
2024/04/01 04:09:15;;;;;;;6.72;4.85;;;;;;;7.33;100.00;99204.09;4959284;28;20223;-88
2024/04/01 04:11:49;;;;;;;5.75;4.65;;;;;;;7.18;100.00;99178.00;4958315;28;20029;-87
2024/04/01 04:14:16;;;;;;;8.10;4.75;;;;;;;7.20;100.00;99186.50;4947690;28;20084;-88
2024/04/01 04:16:41;;;;;;;5.50;4.78;;;;;;;7.05;100.00;99171.00;4961030;28;21260;-87
2024/04/01 04:19:08;;;;;;;5.60;4.47;;;;;;;7.24;100.00;99200.94;4948922;28;20043;-87
2024/04/01 04:21:33;;;;;;;4.85;4.30;;;;;;;7.06;100.00;99182.38;4966036;28;20034;-88
2024/04/01 04:23:59;;;;;;;6.38;4.32;;;;;;;7.06;100.00;99188.47;4986441;28;20508;-88
2024/04/01 04:26:24;;;;;;;4.25;3.85;;;;;;;6.96;100.00;99177.59;4976775;28;20033;-88
2024/04/01 04:28:51;;;;;;;5.20;4.30;;;;;;;7.06;100.00;99195.63;4978189;28;20029;-90
2024/04/01 04:31:17;;;;;;;13.30;4.82;;;;;;;7.11;100.00;99216.09;4962471;28;20072;-88
2024/04/01 04:33:43;;;;;;;5.82;4.15;;;;;;;7.05;100.00;99207.22;4967237;28;20368;-87
2024/04/01 04:36:09;;;;;;;6.15;4.93;;;;;;;7.03;100.00;99196.03;4982626;28;20037;-88
2024/04/01 04:38:35;;;;;;;6.10;4.15;;;;;;;7.01;100.00;99183.03;4960911;28;20104;-88
2024/04/01 04:41:00;;;;;;;7.60;4.47;;;;;;;6.92;100.00;99167.66;4961867;28;21725;-89
2024/04/01 04:43:25;;;;;;;4.03;3.65;;;;;;;7.08;100.00;99207.59;4974611;28;20613;-88
2024/04/01 04:45:51;;;;;;;6.82;4.20;;;;;;;6.72;100.00;99155.41;4987318;28;20372;-89
2024/04/01 04:48:16;;;;;;;4.55;3.85;;;;;;;6.94;100.00;99194.69;4960935;28;20034;-87
2024/04/01 04:50:42;;;;;;;4.78;4.28;;;;;;;7.05;100.00;99205.38;4982064;28;20026;-88
2024/04/01 04:53:08;;;;;;;5.45;4.22;;;;;;;7.02;100.00;99189.13;4982870;28;20431;-88
2024/04/01 04:55:33;;;;;;;4.78;4.28;;;;;;;6.85;100.00;99158.97;4977066;28;20026;-88
2024/04/01 04:57:59;;;;;;;5.00;4.15;;;;;;;6.85;100.00;99161.59;4994414;28;20379;-87
2024/04/01 05:00:25;;;;;;;4.93;4.43;;;;;;;6.85;100.00;99166.91;4963519;28;20022;-88
2024/04/01 05:02:51;;;;;;;5.93;3.40;;;;;;;7.01;100.00;99195.44;4981255;28;20392;-89
2024/04/01 05:05:18;;;;;;;3.72;3.38;;;;;;;7.05;100.00;99204.56;4958238;28;20065;-88
2024/04/01 05:07:48;;;;;;;6.47;3.67;;;;;;;6.96;100.00;99213.81;4962048;28;20716;-88
2024/04/01 05:10:14;;;;;;;4.22;3.67;;;;;;;6.99;100.00;99210.72;4980149;28;20530;-89
2024/04/01 05:12:42;;;;;;;4.00;3.53;;;;;;;6.93;100.00;99198.38;4989415;28;20402;-87
2024/04/01 05:15:08;;;;;;;4.78;3.72;;;;;;;6.89;100.00;99191.91;4972718;28;20033;-89
2024/04/01 05:17:38;;;;;;;3.50;3.20;;;;;;;6.63;100.00;99150.63;4982006;28;20474;-88
2024/04/01 05:20:04;;;;;;;7.75;4.00;;;;;;;6.95;100.00;99193.66;4955318;28;20130;-89
2024/04/01 05:22:29;;;;;;;6.10;3.85;;;;;;;6.87;100.00;99183.38;4980251;28;20139;-87
2024/04/01 05:24:55;;;;;;;4.60;3.78;;;;;;;7.01;100.00;99195.44;4978050;28;20420;-88
2024/04/01 05:27:21;;;;;;;5.85;4.22;;;;;;;7.07;100.00;99215.75;4975880;28;20029;-87
2024/04/01 05:30:09;;;;;;;4.05;3.47;;;;;;;7.13;100.00;99219.38;4965422;28;20056;-88
2024/04/01 05:32:36;;;;;;;8.02;4.18;;;;;;;7.17;100.00;99225.84;4958090;28;20033;-89
2024/04/01 05:35:05;;;;;;;3.93;3.53;;;;;;;7.03;100.00;99201.31;4946497;28;20094;-86
2024/04/01 05:37:32;;;;;;;4.60;3.72;;;;;;;6.90;100.00;99177.66;4947123;28;20673;-88
2024/04/01 05:40:00;;;;;;;4.13;3.38;;;;;;;7.00;100.00;99185.91;4973220;28;20049;-89
2024/04/01 05:42:26;;;;;;;5.15;3.72;;;;;;;7.12;100.00;99205.31;4985649;28;20673;-89
2024/04/01 05:44:52;;;;;;;4.55;3.83;;;;;;;7.09;100.00;99200.47;4968425;28;20056;-88
2024/04/01 05:47:17;;;;;;;3.47;3.17;;;;;;;7.18;100.00;99209.72;4983959;28;20446;-89
2024/04/01 05:49:43;;;;;;;3.75;3.08;;;;;;;7.27;100.00;99226.94;4972915;28;20047;-89
2024/04/01 05:52:08;;;;;;;3.78;2.92;;;;;;;7.16;100.00;99198.56;4963376;28;20033;-88
2024/04/01 05:54:34;;;;;;;6.60;3.45;;;;;;;7.34;100.00;99222.41;4959084;28;20365;-88
2024/04/01 05:57:00;;;;;;;3.63;3.17;;;;;;;7.39;100.00;99227.06;4955131;28;20044;-87
2024/04/01 05:59:27;;;;;;;5.00;3.95;;;;;;;7.40;100.00;99223.38;4981912;28;20034;-87
2024/04/01 06:01:55;;;;;;;4.05;3.60;;;;;;;7.37;100.00;99226.44;4964043;28;20056;-88
2024/04/01 06:04:21;;;;;;;4.35;3.35;;;;;;;7.44;100.00;99224.53;4974789;28;20029;-88
2024/04/01 06:06:48;;;;;;;3.58;3.28;;;;;;;7.47;100.00;99231.22;4967320;28;20166;-88
2024/04/01 06:09:17;;;;;;;4.57;3.35;;;;;;;7.32;100.00;99202.50;4964473;28;20511;-88
2024/04/01 06:11:43;;;;;;;9.07;3.30;;;;;;;7.56;100.00;99224.66;4951286;28;20055;-88
2024/04/01 06:14:09;;;;;;;4.10;3.47;;;;;;;7.51;100.00;99216.53;4955632;28;20041;-89
2024/04/01 06:16:38;;;;;;;3.42;3.13;;;;;;;7.54;100.00;99219.53;4975009;28;20038;-89
2024/04/01 06:19:05;;;;;;;6.05;3.80;;;;;;;7.34;100.00;99192.50;4969596;28;20508;-88
2024/04/01 06:21:31;;;;;;;3.47;3.17;;;;;;;7.58;100.00;99227.88;4964202;28;20432;-87
2024/04/01 06:23:58;;;;;;;6.30;3.45;;;;;;;7.48;100.00;99207.22;4982568;28;20026;-89
2024/04/01 06:26:24;;;;;;;3.60;3.30;;;;;;;7.43;100.00;99187.72;4962182;28;20026;-88
2024/04/01 06:28:50;;;;;;;3.72;3.28;;;;;;;7.62;100.00;99213.97;4954076;28;20038;-88
2024/04/01 06:31:16;;;;;;;3.05;2.83;;;;;;;7.42;100.00;99176.31;4975191;28;21213;-88
2024/04/01 06:33:42;;;;;;;3.58;3.28;;;;;;;7.56;100.00;99200.81;4970921;28;20324;-89
2024/04/01 06:36:07;;;;;;;3.92;3.13;;;;;;;7.75;100.00;99223.63;4975493;28;20032;-88
2024/04/01 06:38:33;;;;;;;3.88;3.42;;;;;;;7.62;100.00;99197.28;4981346;28;20090;-89
2024/04/01 06:40:59;;;;;;;4.65;3.15;;;;;;;7.73;100.00;99216.91;4955946;28;20034;-89
2024/04/01 06:43:25;;;;;;;3.90;3.30;;;;;;;7.87;100.00;99223.66;4948180;28;20033;-88
2024/04/01 06:45:57;;;;;;;3.33;3.03;;;;;;;7.81;100.00;99230.66;4969970;28;20161;-88
2024/04/01 06:48:24;;;;;;;3.30;3.00;;;;;;;7.86;100.00;99224.69;4962120;28;20026;-89
2024/04/01 06:50:50;;;;;;;3.08;2.67;;;;;;;7.85;100.00;99212.50;4974781;28;20511;-88
2024/04/01 06:53:17;;;;;;;3.65;3.25;;;;;;;7.93;100.00;99236.03;4965569;28;20049;-89
2024/04/01 06:55:47;;;;;;;3.70;3.40;;;;;;;7.89;100.00;99218.94;4967831;28;20231;-88
2024/04/01 06:58:13;;;;;;;4.40;3.22;;;;;;;8.04;100.00;99237.94;4963906;28;20263;-89
2024/04/01 07:00:39;;;;;;;3.40;3.10;;;;;;;8.16;100.00;99245.91;4941873;28;20079;-89
2024/04/01 07:03:05;;;;;;;5.15;3.10;;;;;;;8.11;100.00;99243.97;4962054;28;20037;-88
2024/04/01 07:05:32;;;;;;;3.72;3.30;;;;;;;8.18;100.00;99255.28;4960671;28;20041;-88
2024/04/01 07:07:58;;;;;;;3.30;3.00;;;;;;;8.25;100.00;99260.47;4964859;28;20629;-89
2024/04/01 07:10:23;;;;;;;3.55;3.25;;;;;;;8.21;100.00;99260.13;4979348;28;20041;-88
2024/04/01 07:12:49;;;;;;;4.20;2.85;;;;;;;8.19;100.00;99250.78;4963536;28;20061;-89
2024/04/01 07:15:14;;;;;;;3.60;3.25;;;;;;;8.22;100.00;99253.78;4976188;28;20482;-89
2024/04/01 07:17:43;;;;;;;4.68;3.33;;;;;;;8.35;100.00;99274.06;4963907;28;20417;-88
2024/04/01 07:20:09;;;;;;;3.28;2.97;;;;;;;8.34;100.00;99264.47;4967311;28;20035;-88
2024/04/01 07:22:35;;;;;;;3.10;2.90;;;;;;;8.43;100.00;99278.25;4965726;28;20041;-88
2024/04/01 07:25:00;;;;;;;3.50;2.90;;;;;;;8.17;100.00;99242.25;4980152;28;20029;-88
2024/04/01 07:27:25;;;;;;;4.22;3.20;;;;;;;8.14;100.00;99237.41;4965968;28;20029;-89
2024/04/01 07:29:51;;;;;;;3.97;3.30;;;;;;;8.29;100.00;99255.56;4976576;28;20025;-88
2024/04/01 07:32:16;;;;;;;3.90;3.17;;;;;;;8.56;100.00;99291.31;4978460;28;20399;-88
2024/04/01 07:34:42;;;;;;;3.78;3.30;;;;;;;8.41;100.00;99253.78;4978465;28;20502;-88
2024/04/01 07:37:07;;;;;;;4.80;3.40;;;;;;;8.63;100.00;99281.44;4964197;28;21482;-88
2024/04/01 07:39:33;;;;;;;8.70;3.50;;;;;;;8.68;100.00;99286.84;4993518;28;20073;-88
2024/04/01 07:41:59;;;;;;;5.90;3.65;;;;;;;8.53;100.00;99277.72;4976912;28;20500;-88
2024/04/01 07:44:24;;;;;;;4.00;3.33;;;;;;;8.68;100.00;99291.34;4977943;28;20810;-88
2024/04/01 07:46:50;;;;;;;4.47;3.72;;;;;;;8.67;100.00;99287.88;4977389;28;20033;-88
2024/04/01 07:49:16;;;;;;;4.78;3.55;;;;;;;8.71;100.00;99296.22;4992901;28;20022;-87
2024/04/01 07:51:41;;;;;;;4.55;3.92;;;;;;;8.77;100.00;99303.25;4976733;28;20836;-89
2024/04/01 07:54:07;;;;;;;5.95;4.15;;;;;;;8.75;100.00;99295.53;4975761;28;20656;-88
2024/04/01 07:56:35;;;;;;;4.18;3.67;;;;;;;8.69;100.00;99288.50;4977751;28;20030;-89
2024/04/01 07:59:00;;;;;;;3.80;3.50;;;;;;;8.67;100.00;99289.72;4960426;28;20120;-89
2024/04/01 08:01:25;;;;;;;4.43;3.72;;;;;;;8.65;100.00;99276.69;4974932;28;20279;-88
2024/04/01 08:03:51;;;;;;;4.32;3.92;;;;;;;8.78;100.00;99286.31;4977388;28;20661;-87
2024/04/01 08:06:16;;;;;;;4.88;4.13;;;;;;;8.78;100.00;99305.69;4990390;28;20025;-86
2024/04/01 08:08:42;;;;;;;5.53;3.75;;;;;;;8.86;100.00;99312.53;4976858;28;20025;-87
2024/04/01 08:11:07;;;;;;;3.83;3.53;;;;;;;8.86;100.00;99315.19;4965165;28;20030;-88
2024/04/01 08:13:32;;;;;;;4.28;3.88;;;;;;;8.73;100.00;99304.75;4977008;28;20025;-87
2024/04/01 08:16:03;;;;;;;4.70;4.18;;;;;;;8.85;100.00;99321.50;4977138;28;20726;-87
2024/04/01 08:18:28;;;;;;;4.10;3.63;;;;;;;8.99;100.00;99327.44;4978522;28;20026;-87
2024/04/01 08:20:56;;;;;;;5.53;4.20;;;;;;;8.81;100.00;99309.75;4955864;28;20025;-87
2024/04/01 08:23:24;;;;;;;5.18;3.90;;;;;;;8.89;100.00;99329.84;4977028;28;20261;-87
2024/04/01 08:25:49;;;;;;;5.28;4.20;;;;;;;8.93;100.00;99339.75;4975368;28;20481;-88
2024/04/01 08:28:15;;;;;;;4.43;4.03;;;;;;;9.10;100.00;99347.06;4976723;28;20627;-88
2024/04/01 08:30:40;;;;;;;6.30;4.65;;;;;;;9.17;100.00;99353.09;4976350;28;20318;-87
2024/04/01 08:33:06;;;;;;;5.40;4.35;;;;;;;9.16;100.00;99344.31;4962396;28;20613;-88
2024/04/01 08:35:31;;;;;;;8.55;4.90;;;;;;;9.23;100.00;99353.00;4979592;28;20036;-88
2024/04/01 08:37:58;;;;;;;7.55;4.68;;;;;;;9.23;100.00;99362.81;4977873;28;20305;-89
2024/04/01 08:40:24;;;;;;;6.35;5.50;;;;;;;8.71;100.00;99301.53;4978033;28;20139;-87
2024/04/01 08:42:57;;;;;;;6.30;4.97;;;;;;;9.09;100.00;99354.22;4958044;28;20118;-88
2024/04/01 08:45:24;;;;;;;5.53;5.03;;;;;;;9.08;100.00;99355.28;4974733;28;21417;-87
2024/04/01 08:47:55;;;;;;;6.20;5.60;;;;;;;9.11;100.00;99362.75;4977273;28;20212;-87
2024/04/01 08:50:34;;;;;;;5.82;5.32;;;;;;;9.21;100.00;99378.97;4966800;28;20567;-88
2024/04/01 08:53:07;;;;;;;6.80;5.50;;;;;;;9.26;100.00;99383.59;4978216;28;20034;-86
2024/04/01 08:55:34;;;;;;;8.57;6.40;;;;;;;9.01;100.00;99342.09;4976157;28;20035;-87
2024/04/01 08:57:59;;;;;;;6.15;5.50;;;;;;;9.19;100.00;99369.59;4960616;28;20038;-88
2024/04/01 09:00:26;;;;;;;6.47;5.63;;;;;;;9.35;100.00;99374.25;4976553;28;20067;-87
2024/04/01 09:02:52;;;;;;;6.55;5.40;;;;;;;9.19;100.00;99341.22;4961484;28;20403;-88
2024/04/01 09:05:17;;;;;;;8.25;5.97;;;;;;;9.34;100.00;99370.00;4954641;28;20523;-89
2024/04/01 09:07:43;;;;;;;6.25;5.65;;;;;;;9.33;100.00;99389.63;4985326;28;20033;-86
2024/04/01 09:10:08;;;;;;;6.60;5.90;;;;;;;9.26;100.00;99379.09;4986295;28;20038;-88
2024/04/01 09:12:34;;;;;;;5.70;5.15;;;;;;;9.15;100.00;99363.94;4981894;28;20034;-87
2024/04/01 09:15:00;;;;;;;6.30;5.63;;;;;;;9.20;100.00;99379.19;4969910;28;20037;-86
2024/04/01 09:17:26;;;;;;;5.90;5.30;;;;;;;9.29;100.00;99393.75;4967584;28;20613;-88
2024/04/01 09:20:00;;;;;;;9.52;6.20;;;;;;;9.22;100.00;99382.44;4943590;28;20488;-88
2024/04/01 09:22:25;;;;;;;5.93;5.32;;;;;;;9.26;100.00;99392.34;4953311;28;20108;-87
2024/04/01 09:24:51;;;;;;;8.85;5.93;;;;;;;9.29;100.00;99399.06;4962925;28;21647;-88
2024/04/01 09:27:16;;;;;;;5.97;5.38;;;;;;;9.30;100.00;99392.72;4969178;28;20619;-88
2024/04/01 09:29:42;;;;;;;6.47;5.80;;;;;;;9.44;100.00;99402.09;4994185;28;20592;-88
2024/04/01 09:32:07;;;;;;;6.93;5.75;;;;;;;8.96;100.00;99330.56;4971863;28;20648;-89
2024/04/01 09:34:33;;;;;;;6.85;6.03;;;;;;;9.57;100.00;99409.06;4979067;28;20080;-87
2024/04/01 09:36:59;;;;;;;6.15;5.55;;;;;;;9.45;100.00;99411.69;4957652;28;20034;-86
2024/04/01 09:39:25;;;;;;;7.00;5.55;;;;;;;9.55;100.00;99422.53;4967805;28;20549;-87
2024/04/01 09:41:50;;;;;;;8.48;5.93;;;;;;;9.39;100.00;99388.72;4956486;28;20037;-88
2024/04/01 09:44:17;;;;;;;6.43;5.45;;;;;;;9.85;100.00;99427.00;4975837;28;20908;-88
2024/04/01 09:46:42;;;;;;;7.03;5.80;;;;;;;9.94;100.00;99414.97;4956383;28;20079;-86
2024/04/01 09:49:08;;;;;;;6.50;5.88;;;;;;;10.10;100.00;99411.63;4965290;28;20033;-88
2024/04/01 09:51:34;;;;;;;5.93;5.32;;;;;;;10.18;100.00;99421.13;4972220;28;20249;-88
2024/04/01 09:53:59;;;;;;;6.50;5.75;;;;;;;10.18;100.00;99403.31;4949731;28;20132;-87
2024/04/01 09:56:46;;;;;;;10.77;5.38;;;;;;;10.33;100.00;99416.13;4956682;28;20201;-87
2024/04/01 09:59:48;;;;;;;6.37;5.27;;;;;;;10.16;100.00;99434.63;4973315;28;20021;-87
2024/04/01 10:02:38;;;;;;;5.50;4.95;;;;;;;10.22;100.00;99427.59;4970826;28;20458;-88
2024/04/01 10:05:29;;;;;;;6.05;4.95;;;;;;;10.39;100.00;99419.72;4959579;28;20065;-88
2024/04/01 10:08:26;;;;;;;6.90;4.68;;;;;;;10.52;100.00;99424.00;4959379;28;20029;-87
2024/04/01 10:11:17;;;;;;;5.20;4.70;;;;;;;10.44;100.00;99425.97;4972753;28;20033;-89
2024/04/01 10:14:08;;;;;;;8.75;4.32;;;;;;;10.31;100.00;99439.50;4987507;28;20037;-88
2024/04/01 10:16:52;;;;;;;5.03;4.35;;;;;;;10.28;100.00;99445.28;4971044;28;20136;-88
2024/04/01 10:19:47;;;;;;;4.88;4.38;;;;;;;10.46;100.00;99439.84;4979920;28;20041;-88
2024/04/01 10:22:50;;;;;;;5.47;4.65;;;;;;;10.40;100.00;99447.94;4972390;28;20033;-88
2024/04/01 10:25:40;;;;;;;4.72;4.22;;;;;;;10.49;100.00;99454.50;4969862;28;20029;-88
2024/04/01 10:28:43;;;;;;;5.30;4.40;;;;;;;10.56;100.00;99444.56;4961368;28;20496;-86
2024/04/01 10:31:27;;;;;;;5.07;4.00;;;;;;;10.42;100.00;99446.69;4973274;28;20054;-87
2024/04/01 10:34:36;;;;;;;7.35;4.20;;;;;;;10.30;100.00;99455.69;4967180;28;20029;-88
2024/04/01 10:37:29;;;;;;;4.93;4.03;;;;;;;10.31;100.00;99449.31;4960497;28;20033;-88
2024/04/01 10:40:21;;;;;;;4.88;4.03;;;;;;;10.02;100.00;99440.41;4975264;28;20069;-87
2024/04/01 10:43:34;;;;;;;5.22;4.22;;;;;;;10.13;100.00;99451.03;4970229;28;20034;-88
2024/04/01 10:46:21;;;;;;;5.60;4.22;;;;;;;10.07;100.00;99449.28;4959106;28;20036;-88
2024/04/01 10:49:10;;;;;;;9.27;4.88;;;;;;;10.11;100.00;99452.31;4981292;28;20480;-86
2024/04/01 10:52:14;;;;;;;5.00;4.20;;;;;;;10.02;100.00;99443.88;4967332;28;20048;-85
2024/04/01 10:54:52;;;;;;;5.72;4.10;;;;;;;10.12;100.00;99441.44;4979323;28;20048;-86
2024/04/01 10:57:30;;;;;;;4.18;3.78;;;;;;;10.23;100.00;99444.34;4979232;28;20287;-87
2024/04/01 11:00:15;;;;;;;5.78;4.20;;;;;;;10.22;100.00;99448.88;4962734;28;20420;-87
2024/04/01 11:02:52;;;;;;;4.35;3.95;;;;;;;10.15;100.00;99443.63;4960417;28;20234;-86
2024/04/01 11:05:49;;;;;;;4.00;3.60;;;;;;;10.23;100.00;99455.81;4979172;28;20037;-87
2024/04/01 11:08:24;;;;;;;3.90;3.50;;;;;;;10.04;100.00;99420.53;4978431;28;20089;-87
2024/04/01 11:11:07;;;;;;;4.18;3.65;;;;;;;10.20;100.00;99458.91;4976631;28;20103;-86
2024/04/01 11:13:37;;;;;;;4.43;3.67;;;;;;;10.07;100.00;99451.94;4977155;28;20459;-87
2024/04/01 11:16:04;;;;;;;4.38;3.97;;;;;;;9.99;100.00;99439.03;4963700;28;20220;-86
2024/04/01 11:18:53;;;;;;;6.35;4.20;;;;;;;10.09;100.00;99455.22;4964563;28;20025;-86
2024/04/01 11:21:43;;;;;;;5.25;4.00;;;;;;;10.05;100.00;99469.97;4978675;28;20621;-86
2024/04/01 11:24:28;;;;;;;5.03;4.32;;;;;;;10.15;100.00;99469.41;4966544;28;20106;-87
2024/04/01 11:27:31;;;;;;;4.72;4.15;;;;;;;9.79;100.00;99431.38;4975202;28;20032;-86
2024/04/01 11:30:03;;;;;;;5.82;4.35;;;;;;;10.04;100.00;99479.00;4956275;28;20067;-87
2024/04/01 11:32:38;;;;;;;4.75;3.78;;;;;;;10.05;100.00;99485.94;4991937;28;20053;-86
2024/04/01 11:35:20;;;;;;;5.22;4.35;;;;;;;9.91;100.00;99450.00;4961582;28;20061;-86
2024/04/01 11:37:52;;;;;;;4.07;3.72;;;;;;;10.11;100.00;99469.06;4976003;28;20042;-85
2024/04/01 11:40:22;;;;;;;4.97;4.53;;;;;;;10.03;100.00;99466.75;4961538;28;20135;-86